Airport Name : Bradley Intl

Other Name : Bradley Intl

ICAO : KBDL

IATA : BDL

FAA : BDL

Latitude : 41.938889

Longitude : -72.683222

Country : United States

Local Date and Time : 1/23/2018 12:49:00 AM

 

TAF (Terminal Aerodrome Forecast)

KBDL 230540Z 2306/2412 01005KT 1 1/2SM -DZ BR OVC002 FM230900 00000KT 3/4SM BR VCSH OVC003 WS020/19030KT FM231300 00000KT 1/2SM +SHRA FG OVC003 WS020/19035KT FM231600 18007G18KT 2SM +SHRA OVC008 WS020/20040KT FM231800 18013G26KT 2SM SHRA OVC015 FM232300 23007G17KT P6SM BKN070 FM240100 25007KT P6SM SCT150

 

METAR (METeorological Aerodrome Report)

KBDL 230451Z 01005KT 1 1/4SM -DZ BR OVC002 01/01 A3013 RMK AO2 SFC VIS 1 1/2 SLP204 P0000 T00110011 400330011

KBDL 230351Z 01007KT 1 1/4SM -DZ BR OVC003 01/01 A3013 RMK AO2 SFC VIS 1 3/4 DZE0255B38 SLP206 P0000 T00110011

KBDL 230251Z 02007KT 2 1/2SM -DZ BR BKN004 OVC007 02/02 A3017 RMK AO2 DZB30 SLP216 P0000 60000 T00170017 58016

KBDL 230151Z 02006KT 2 1/2SM BR BKN004 OVC007 02/02 A3019 RMK AO2 SLP223 T00220017